Time;durP1;ratioP1;P1;durP2;ratioP2;P2;SDS_P1;SDS_P2;PMS_P1;PMS_P2;Temp;Humidity;BMP_temperature;BMP_pressure;BME280_temperature;BME280_humidity;BME280_pressure;Samples;Min_cycle;Max_cycle;Signal;HPM_P1;HPM_P2
2023/08/29 00:02:13;;;;;;;10.70;4.40;;;;;;;30.99;33.25;99662.46;107861;1286;21990;-67
2023/08/29 00:04:39;;;;;;;9.00;4.60;;;;;;;30.95;33.35;99661.78;107873;1279;22083;-69
2023/08/29 00:07:05;;;;;;;10.80;4.20;;;;;;;30.91;33.52;99657.07;107844;1283;21992;-68
2023/08/29 00:09:32;;;;;;;11.90;4.90;;;;;;;30.85;33.56;99662.15;107896;1289;22008;-58
2023/08/29 00:11:57;;;;;;;8.50;4.60;;;;;;;30.79;33.59;99665.55;107872;1283;22055;-68
2023/08/29 00:14:23;;;;;;;9.60;4.00;;;;;;;30.75;33.61;99662.93;107912;1286;22030;-67
2023/08/29 00:16:48;;;;;;;7.80;4.00;;;;;;;30.70;33.54;99662.59;107915;1280;21993;-68
2023/08/29 00:19:15;;;;;;;9.60;5.00;;;;;;;30.64;33.70;99659.63;107876;1283;21992;-68
2023/08/29 00:21:45;;;;;;;9.00;4.30;;;;;;;30.57;33.81;99657.55;107869;1289;22003;-69
2023/08/29 00:24:10;;;;;;;12.70;4.40;;;;;;;30.51;33.80;99650.30;107929;1289;23723;-59
2023/08/29 00:26:36;;;;;;;10.10;4.20;;;;;;;30.45;33.87;99647.70;107869;1279;21995;-69
2023/08/29 00:29:02;;;;;;;13.00;4.20;;;;;;;30.40;33.68;99648.91;107864;1283;22005;-58
2023/08/29 00:31:27;;;;;;;7.20;3.90;;;;;;;30.36;33.88;99643.55;107854;1289;21993;-59
2023/08/29 00:33:54;;;;;;;9.80;4.50;;;;;;;30.33;33.92;99644.96;107875;1283;21995;-69
2023/08/29 00:36:20;;;;;;;8.30;4.00;;;;;;;30.32;33.90;99640.58;107862;1280;21996;-59
2023/08/29 00:38:46;;;;;;;7.90;4.50;;;;;;;30.33;33.81;99637.00;107934;1283;22085;-58
2023/08/29 00:41:11;;;;;;;15.50;5.40;;;;;;;30.37;33.97;99628.84;107903;1289;21991;-69
2023/08/29 00:43:37;;;;;;;8.40;4.40;;;;;;;30.42;33.89;99630.30;107871;1283;22000;-68
2023/08/29 00:46:04;;;;;;;8.00;4.20;;;;;;;30.47;33.84;99628.68;107872;1281;21997;-68
2023/08/29 00:48:30;;;;;;;9.10;3.60;;;;;;;30.50;33.73;99626.34;107861;1279;21989;-63
2023/08/29 00:50:56;;;;;;;9.70;3.80;;;;;;;30.53;33.68;99625.30;107838;1286;21993;-68
2023/08/29 00:53:24;;;;;;;6.70;3.50;;;;;;;30.55;33.60;99623.98;107850;1290;21993;-59
2023/08/29 00:55:50;;;;;;;9.60;3.60;;;;;;;30.56;33.49;99622.76;107892;1282;21990;-58
2023/08/29 00:58:15;;;;;;;9.30;4.60;;;;;;;30.57;33.55;99627.36;107852;1289;21987;-58
2023/08/29 01:00:41;;;;;;;10.80;4.50;;;;;;;30.58;33.51;99626.42;107894;1290;24124;-68
2023/08/29 01:03:06;;;;;;;7.90;4.20;;;;;;;30.57;33.49;99627.41;107840;1290;21996;-68
2023/08/29 01:05:32;;;;;;;9.60;4.30;;;;;;;30.58;33.49;99627.50;107871;1283;21998;-58
2023/08/29 01:07:59;;;;;;;8.70;4.30;;;;;;;30.58;33.42;99627.31;107844;1280;22004;-68
2023/08/29 01:10:53;;;;;;;8.60;4.00;;;;;;;30.58;33.42;99626.94;107998;1286;21993;-58
2023/08/29 01:13:26;;;;;;;10.20;3.60;;;;;;;30.56;33.57;99629.79;107837;1280;21992;-68
2023/08/29 01:15:52;;;;;;;10.10;4.50;;;;;;;30.55;33.62;99625.54;107700;1286;21993;-68
2023/08/29 01:18:19;;;;;;;10.50;3.80;;;;;;;30.55;33.71;99628.63;107690;1291;22005;-58
2023/08/29 01:20:45;;;;;;;9.50;3.60;;;;;;;30.54;33.72;99632.73;107641;1281;21997;-58
2023/08/29 01:23:18;;;;;;;9.00;3.80;;;;;;;30.51;33.57;99633.27;107809;1286;22456;-68
2023/08/29 01:25:48;;;;;;;10.60;4.10;;;;;;;30.47;33.55;99640.05;107859;1286;22074;-68
2023/08/29 01:28:14;;;;;;;6.50;3.70;;;;;;;30.44;33.63;99645.08;107731;1289;21990;-58
2023/08/29 01:30:39;;;;;;;10.40;3.80;;;;;;;30.44;33.75;99642.86;107825;1286;21993;-60
2023/08/29 01:33:07;;;;;;;9.30;3.70;;;;;;;30.42;33.72;99642.73;107716;1283;22032;-59
2023/08/29 01:35:33;;;;;;;9.50;3.70;;;;;;;30.41;33.64;99647.67;107954;1289;21990;-59
2023/08/29 01:37:59;;;;;;;7.40;4.10;;;;;;;30.42;33.72;99647.84;107682;1282;21991;-67
2023/08/29 01:40:24;;;;;;;6.60;3.90;;;;;;;30.40;33.72;99649.97;107707;1289;22009;-58
2023/08/29 01:42:50;;;;;;;10.60;4.30;;;;;;;30.38;33.94;99647.90;107754;1290;22000;-68
2023/08/29 01:45:15;;;;;;;10.00;3.70;;;;;;;30.34;33.77;99652.43;107711;1290;22002;-58
2023/08/29 01:47:42;;;;;;;10.30;4.00;;;;;;;30.30;34.15;99654.73;107879;1284;21994;-68
2023/08/29 01:50:08;;;;;;;8.40;4.30;;;;;;;30.26;34.19;99653.33;107802;1291;23683;-58
2023/08/29 01:52:34;;;;;;;6.80;3.90;;;;;;;30.23;34.18;99654.14;107841;1286;21995;-58
2023/08/29 01:55:00;;;;;;;7.10;3.90;;;;;;;30.20;34.32;99648.53;107630;1286;22034;-69
2023/08/29 01:57:26;;;;;;;7.70;4.00;;;;;;;30.14;34.36;99646.64;107885;1289;22461;-68
2023/08/29 01:59:52;;;;;;;11.00;4.90;;;;;;;30.08;34.42;99645.64;107982;1285;22006;-58
2023/08/29 02:02:18;;;;;;;12.40;4.60;;;;;;;30.02;34.39;99639.55;107934;1279;21990;-63
2023/08/29 02:04:44;;;;;;;9.50;4.80;;;;;;;29.96;34.61;99637.16;108025;1282;22033;-58
2023/08/29 02:07:10;;;;;;;8.00;4.40;;;;;;;29.89;34.39;99633.83;107809;1286;21987;-58
2023/08/29 02:09:35;;;;;;;11.60;4.90;;;;;;;29.83;34.50;99635.32;107708;1289;21994;-69
2023/08/29 02:12:01;;;;;;;11.90;4.40;;;;;;;29.80;34.55;99630.67;107689;1289;21996;-68
2023/08/29 02:14:26;;;;;;;10.50;4.30;;;;;;;29.76;34.51;99628.55;107785;1289;21992;-67
2023/08/29 02:16:52;;;;;;;8.00;3.90;;;;;;;29.70;34.59;99634.98;107795;1285;21990;-58
2023/08/29 02:19:17;;;;;;;10.80;4.30;;;;;;;29.63;34.56;99633.33;107646;1285;22002;-68
2023/08/29 02:21:43;;;;;;;10.80;4.40;;;;;;;29.56;34.60;99634.55;107807;1283;21993;-68
2023/08/29 02:24:09;;;;;;;9.30;4.30;;;;;;;29.53;34.70;99635.28;107778;1285;23082;-67
2023/08/29 02:26:34;;;;;;;10.00;5.00;;;;;;;29.50;34.57;99635.33;108023;1290;21993;-58
2023/08/29 02:29:00;;;;;;;9.60;4.80;;;;;;;29.49;34.74;99638.58;108000;1286;22005;-68
2023/08/29 02:31:25;;;;;;;9.40;3.90;;;;;;;29.47;34.74;99636.94;107938;1286;21993;-58
2023/08/29 02:33:53;;;;;;;6.90;4.40;;;;;;;29.46;34.91;99642.31;107697;1289;319927;-68
2023/08/29 02:36:19;;;;;;;9.40;4.70;;;;;;;29.43;35.13;99645.11;107923;1290;21998;-58
2023/08/29 02:38:44;;;;;;;8.70;3.90;;;;;;;29.39;35.14;99645.69;107912;1283;22002;-68
2023/08/29 02:41:11;;;;;;;12.50;5.10;;;;;;;29.35;35.23;99645.23;107901;1283;21985;-68
2023/08/29 02:43:37;;;;;;;9.70;4.50;;;;;;;29.31;35.31;99648.38;107893;1286;21993;-58
2023/08/29 02:46:03;;;;;;;9.80;4.50;;;;;;;29.25;35.22;99654.84;107885;1283;22008;-59
2023/08/29 02:48:29;;;;;;;9.80;4.50;;;;;;;29.21;35.29;99654.74;107969;1283;22002;-58
2023/08/29 02:50:54;;;;;;;14.70;5.10;;;;;;;29.18;35.22;99651.30;107939;1289;22003;-68
2023/08/29 02:53:20;;;;;;;12.80;5.40;;;;;;;29.14;35.31;99653.52;107924;1286;21998;-68
2023/08/29 02:55:46;;;;;;;9.20;4.50;;;;;;;29.09;35.43;99653.79;107840;1288;21997;-61
2023/08/29 02:58:12;;;;;;;10.50;4.70;;;;;;;29.06;35.56;99654.09;107925;1283;21995;-68
2023/08/29 03:00:38;;;;;;;8.50;4.60;;;;;;;29.03;35.50;99652.23;107832;1280;21991;-59
2023/08/29 03:03:04;;;;;;;11.00;4.60;;;;;;;28.99;35.67;99654.07;107897;1290;22083;-58
2023/08/29 03:05:31;;;;;;;11.10;4.90;;;;;;;28.95;35.72;99654.13;107935;1283;21996;-69
2023/08/29 03:07:57;;;;;;;9.80;4.40;;;;;;;28.92;35.78;99652.60;107865;1279;22014;-58
2023/08/29 03:10:23;;;;;;;10.80;4.90;;;;;;;28.90;35.79;99649.20;107864;1290;21997;-58
2023/08/29 03:12:52;;;;;;;10.40;4.60;;;;;;;28.89;36.03;99647.39;107831;1286;22090;-58
2023/08/29 03:15:18;;;;;;;15.90;5.80;;;;;;;28.86;35.90;99643.44;107910;1288;22004;-58
2023/08/29 03:17:44;;;;;;;8.10;4.90;;;;;;;28.84;36.04;99645.69;107894;1286;22000;-58
2023/08/29 03:20:11;;;;;;;8.50;4.80;;;;;;;28.82;36.19;99641.91;107826;1280;21993;-58
2023/08/29 03:22:36;;;;;;;16.40;4.90;;;;;;;28.81;36.17;99646.14;107909;1286;22845;-59
2023/08/29 03:25:02;;;;;;;9.20;4.60;;;;;;;28.80;36.14;99647.71;107935;1289;21995;-68
2023/08/29 03:27:28;;;;;;;11.50;5.00;;;;;;;28.78;36.19;99652.38;107842;1283;22029;-69
2023/08/29 03:29:54;;;;;;;9.30;5.30;;;;;;;28.76;36.22;99652.75;107788;1283;22001;-69
2023/08/29 03:32:20;;;;;;;8.70;5.20;;;;;;;28.74;36.23;99655.11;107758;1290;22005;-58
2023/08/29 03:34:45;;;;;;;10.90;5.20;;;;;;;28.72;36.27;99656.54;107764;1286;22166;-70
2023/08/29 03:37:11;;;;;;;12.30;5.70;;;;;;;28.72;36.51;99657.34;107760;1289;21985;-68
2023/08/29 03:39:36;;;;;;;10.40;5.40;;;;;;;28.71;36.50;99655.23;107769;1290;22012;-59
2023/08/29 03:42:02;;;;;;;17.50;5.90;;;;;;;28.71;36.73;99651.80;107866;1290;21999;-69
2023/08/29 03:44:28;;;;;;;17.20;5.90;;;;;;;28.74;36.78;99652.05;107830;1286;22007;-70
2023/08/29 03:46:53;;;;;;;19.10;6.30;;;;;;;28.78;36.94;99652.73;107826;1290;21995;-67
2023/08/29 03:49:19;;;;;;;14.10;6.10;;;;;;;28.83;36.87;99656.64;107822;1283;21993;-70
2023/08/29 03:51:45;;;;;;;14.50;6.10;;;;;;;28.85;36.83;99657.85;107839;1277;21993;-71
2023/08/29 03:54:10;;;;;;;15.00;6.40;;;;;;;28.87;36.78;99662.84;107844;1287;21992;-62
2023/08/29 03:56:36;;;;;;;14.10;6.00;;;;;;;28.88;36.81;99665.66;107833;1286;22033;-60
2023/08/29 03:59:04;;;;;;;12.70;5.60;;;;;;;28.88;36.89;99666.45;107854;1283;21996;-67
2023/08/29 04:01:30;;;;;;;15.30;7.20;;;;;;;28.89;37.02;99670.48;107867;1289;21998;-59
2023/08/29 04:03:55;;;;;;;18.40;6.80;;;;;;;28.90;37.07;99671.95;107855;1283;22027;-68
2023/08/29 04:06:21;;;;;;;16.10;6.20;;;;;;;28.92;37.07;99669.75;107836;1286;22005;-68
2023/08/29 04:08:47;;;;;;;17.60;7.10;;;;;;;28.96;36.94;99668.50;107866;1284;21994;-67
2023/08/29 04:11:12;;;;;;;17.40;6.90;;;;;;;28.99;37.15;99665.95;107924;1284;21962;-69
2023/08/29 04:13:38;;;;;;;20.60;7.10;;;;;;;29.04;37.29;99662.80;107832;1283;21995;-58
2023/08/29 04:16:04;;;;;;;14.70;6.00;;;;;;;29.10;37.26;99660.96;107854;1290;22068;-58
2023/08/29 04:18:32;;;;;;;12.00;6.30;;;;;;;29.17;37.35;99659.66;107830;1285;22003;-69
2023/08/29 04:20:59;;;;;;;16.60;6.40;;;;;;;29.24;37.25;99658.46;107833;1283;22086;-68
2023/08/29 04:23:25;;;;;;;12.10;6.50;;;;;;;29.29;37.35;99665.33;107869;1285;22018;-58
2023/08/29 04:25:58;;;;;;;18.40;7.30;;;;;;;29.36;37.34;99665.70;107847;1289;21963;-60
2023/08/29 04:28:23;;;;;;;16.80;6.90;;;;;;;29.42;37.54;99674.48;107889;1286;21996;-71
2023/08/29 04:30:49;;;;;;;9.90;5.90;;;;;;;29.49;37.59;99673.57;107864;1289;21993;-71
2023/08/29 04:33:14;;;;;;;17.10;6.30;;;;;;;29.57;37.92;99675.83;107834;1289;22008;-70
2023/08/29 04:35:40;;;;;;;18.00;7.70;;;;;;;29.66;37.73;99676.02;107850;1283;22001;-59
2023/08/29 04:38:05;;;;;;;14.50;8.00;;;;;;;29.75;37.87;99673.06;107824;1289;22175;-59
2023/08/29 04:40:31;;;;;;;17.90;8.70;;;;;;;29.84;38.03;99671.98;107845;1280;21999;-70
2023/08/29 04:42:57;;;;;;;20.10;8.90;;;;;;;29.94;38.05;99673.16;107818;1289;21995;-69
2023/08/29 04:45:23;;;;;;;17.50;8.50;;;;;;;30.05;38.01;99676.59;107826;1289;21999;-59
2023/08/29 04:47:48;;;;;;;20.00;8.70;;;;;;;30.17;37.95;99679.11;107832;1289;22123;-59
2023/08/29 04:50:14;;;;;;;20.50;8.50;;;;;;;30.30;37.97;99685.70;107822;1290;22032;-70
2023/08/29 04:52:40;;;;;;;19.60;7.40;;;;;;;30.41;38.07;99682.99;107867;1289;22032;-59
2023/08/29 04:55:06;;;;;;;13.10;7.70;;;;;;;30.54;38.01;99680.59;107828;1289;21998;-58
2023/08/29 04:57:33;;;;;;;17.40;7.80;;;;;;;30.67;38.20;99677.17;107866;1287;21999;-70
2023/08/29 05:00:00;;;;;;;14.70;6.60;;;;;;;30.81;38.25;99673.73;108013;1290;23855;-59
2023/08/29 05:02:26;;;;;;;13.40;7.40;;;;;;;30.94;38.27;99666.81;107843;1284;21992;-65
2023/08/29 05:04:52;;;;;;;16.00;8.10;;;;;;;31.10;38.20;99668.75;107839;1283;21989;-70
2023/08/29 05:07:19;;;;;;;15.00;8.10;;;;;;;31.27;38.28;99669.45;107846;1289;21996;-70
2023/08/29 05:09:44;;;;;;;13.90;7.70;;;;;;;31.44;38.42;99672.12;107833;1290;21990;-69
2023/08/29 05:12:10;;;;;;;10.90;7.30;;;;;;;31.60;38.65;99677.15;107839;1289;21987;-69
2023/08/29 05:14:38;;;;;;;13.10;7.50;;;;;;;31.78;38.96;99678.80;107919;1284;21980;-59
2023/08/29 05:17:04;;;;;;;10.80;7.20;;;;;;;31.95;39.21;99682.48;107838;1277;22468;-59
2023/08/29 05:19:30;;;;;;;26.70;7.80;;;;;;;32.11;39.58;99683.71;107885;1290;21993;-58
2023/08/29 05:21:55;;;;;;;26.40;7.30;;;;;;;32.26;39.41;99685.84;107852;1289;21994;-58
2023/08/29 05:24:21;;;;;;;24.30;6.80;;;;;;;32.43;39.27;99684.98;107873;1290;22049;-70
2023/08/29 05:26:47;;;;;;;14.40;6.80;;;;;;;32.64;39.45;99683.19;107899;1283;21998;-73
2023/08/29 05:29:12;;;;;;;10.70;6.80;;;;;;;32.81;39.47;99682.07;107881;1290;22005;-58
2023/08/29 05:31:38;;;;;;;16.90;7.10;;;;;;;33.00;39.48;99688.63;107835;1290;22003;-58
2023/08/29 05:34:04;;;;;;;10.30;6.10;;;;;;;33.20;39.63;99693.73;107801;1289;21996;-58
2023/08/29 05:36:29;;;;;;;13.90;6.80;;;;;;;33.42;39.67;99695.89;107821;1290;21987;-73
2023/08/29 05:38:55;;;;;;;16.20;7.40;;;;;;;33.63;40.00;99699.84;107808;1281;22007;-71
2023/08/29 05:41:21;;;;;;;15.30;6.20;;;;;;;33.82;40.36;99704.64;107849;1290;21993;-59
2023/08/29 05:43:47;;;;;;;16.00;8.30;;;;;;;33.98;40.46;99699.30;107895;1290;22002;-58
2023/08/29 05:46:12;;;;;;;11.60;6.60;;;;;;;34.15;40.56;99696.94;107824;1286;21990;-61
2023/08/29 05:48:38;;;;;;;12.80;7.00;;;;;;;34.33;40.45;99697.36;107858;1286;21992;-73
2023/08/29 05:51:03;;;;;;;9.60;6.00;;;;;;;34.53;40.30;99699.13;107815;1289;21993;-71
2023/08/29 05:53:29;;;;;;;14.60;6.50;;;;;;;34.73;40.42;99703.27;107816;1290;22004;-70
2023/08/29 05:55:54;;;;;;;8.50;6.10;;;;;;;34.92;40.48;99702.86;107818;1283;22008;-58
2023/08/29 05:58:21;;;;;;;8.20;6.10;;;;;;;35.11;40.56;99702.14;107846;1290;22001;-58
2023/08/29 06:00:48;;;;;;;11.70;6.10;;;;;;;35.30;40.72;99706.22;107805;1279;22001;-59
2023/08/29 06:03:14;;;;;;;8.00;5.80;;;;;;;35.50;40.56;99700.10;107818;1281;22046;-58
2023/08/29 06:05:41;;;;;;;10.70;6.00;;;;;;;35.70;40.31;99699.77;107813;1289;22002;-77
2023/08/29 06:08:07;;;;;;;12.90;6.80;;;;;;;35.88;40.06;99698.27;107833;1289;23663;-73
2023/08/29 06:10:33;;;;;;;13.80;6.10;;;;;;;36.07;40.17;99695.58;107877;1289;21985;-60
2023/08/29 06:12:59;;;;;;;10.50;6.00;;;;;;;36.26;40.40;99696.84;107849;1289;21990;-57
2023/08/29 06:15:24;;;;;;;8.60;6.20;;;;;;;36.45;40.36;99694.53;107824;1280;22003;-72
2023/08/29 06:17:50;;;;;;;8.70;5.90;;;;;;;36.64;40.14;99698.02;107808;1289;22000;-72
2023/08/29 06:20:16;;;;;;;14.90;6.40;;;;;;;36.82;39.98;99697.63;107873;1289;21992;-58
2023/08/29 06:22:42;;;;;;;10.60;6.10;;;;;;;37.01;40.09;99696.70;107801;1290;22461;-75
2023/08/29 06:25:09;;;;;;;11.40;6.10;;;;;;;37.21;39.94;99700.61;107854;1283;22218;-57
2023/08/29 06:27:36;;;;;;;9.00;5.40;;;;;;;37.41;39.75;99702.30;108251;1289;21994;-73
2023/08/29 06:30:02;;;;;;;10.20;6.30;;;;;;;37.59;39.67;99700.35;107851;1286;22030;-72
2023/08/29 06:32:29;;;;;;;10.30;6.00;;;;;;;37.76;39.45;99699.27;107842;1283;21993;-58
2023/08/29 06:34:55;;;;;;;16.00;6.80;;;;;;;37.93;39.39;99700.34;107852;1288;22027;-74
2023/08/29 06:37:21;;;;;;;11.80;5.50;;;;;;;38.11;39.26;99703.27;107824;1289;22012;-72
2023/08/29 06:39:47;;;;;;;12.30;6.30;;;;;;;38.30;39.09;99705.20;107809;1289;21994;-57
2023/08/29 06:42:13;;;;;;;11.80;5.90;;;;;;;38.49;38.81;99705.67;107858;1289;22000;-58
2023/08/29 06:44:38;;;;;;;12.40;5.80;;;;;;;38.66;38.62;99709.05;107847;1286;21998;-58
2023/08/29 06:47:04;;;;;;;8.30;5.50;;;;;;;38.85;38.42;99711.32;107808;1289;23060;-58
2023/08/29 06:49:30;;;;;;;9.60;5.10;;;;;;;39.02;38.20;99710.46;107870;1289;22347;-58
2023/08/29 06:51:56;;;;;;;7.80;4.60;;;;;;;39.18;38.08;99712.52;107818;1282;21992;-63
2023/08/29 06:54:21;;;;;;;11.50;5.60;;;;;;;39.37;37.98;99708.01;107788;1283;22000;-71
2023/08/29 06:56:49;;;;;;;8.40;4.60;;;;;;;39.54;37.56;99706.20;107812;1289;22012;-59
2023/08/29 06:59:15;;;;;;;8.80;4.90;;;;;;;39.68;36.94;99709.98;107794;1280;21995;-58
2023/08/29 07:01:41;;;;;;;8.20;4.60;;;;;;;39.80;36.75;99701.05;107912;1283;21981;-67
2023/08/29 07:04:08;;;;;;;8.00;4.50;;;;;;;39.93;36.64;99699.92;107856;1289;21992;-72
2023/08/29 07:06:33;;;;;;;10.40;4.50;;;;;;;40.06;36.32;99709.86;107941;1283;21988;-74
2023/08/29 07:09:00;;;;;;;8.90;5.20;;;;;;;40.11;35.54;99708.36;107829;1283;21989;-73
2023/08/29 07:11:26;;;;;;;6.50;4.80;;;;;;;40.17;35.95;99711.09;107804;1279;23666;-59
2023/08/29 07:13:52;;;;;;;6.40;4.60;;;;;;;40.32;35.64;99711.98;107858;1283;22469;-74
2023/08/29 07:16:17;;;;;;;9.80;4.70;;;;;;;40.50;35.54;99708.13;107834;1283;22031;-58
2023/08/29 07:18:44;;;;;;;8.40;5.00;;;;;;;40.68;35.27;99709.30;107801;1289;21997;-58
2023/08/29 07:21:10;;;;;;;7.30;5.20;;;;;;;40.86;34.67;99706.16;107882;1283;21997;-73
2023/08/29 07:23:36;;;;;;;6.80;5.00;;;;;;;40.98;34.56;99710.48;107866;1289;23682;-59
2023/08/29 07:26:01;;;;;;;8.00;5.10;;;;;;;41.01;33.93;99713.69;107826;1286;21996;-76
2023/08/29 07:28:28;;;;;;;10.10;5.60;;;;;;;40.97;33.30;99717.36;107802;1289;23678;-59
2023/08/29 07:30:53;;;;;;;10.20;5.20;;;;;;;40.95;33.62;99718.54;107829;1283;21990;-59
2023/08/29 07:33:19;;;;;;;8.30;5.00;;;;;;;41.09;33.72;99716.75;107826;1278;21992;-75
2023/08/29 07:35:47;;;;;;;8.50;4.90;;;;;;;41.32;33.52;99718.78;107824;1290;23714;-70
2023/08/29 07:38:13;;;;;;;12.90;5.10;;;;;;;41.51;33.28;99721.65;107860;1290;23139;-63
2023/08/29 07:40:38;;;;;;;7.00;4.70;;;;;;;41.70;33.38;99719.20;107814;1289;21992;-59
2023/08/29 07:43:06;;;;;;;9.80;4.90;;;;;;;42.04;33.39;99714.47;107812;1282;22030;-59
2023/08/29 07:45:32;;;;;;;15.70;5.50;;;;;;;42.52;33.21;99715.50;107843;1277;21993;-75
2023/08/29 07:47:58;;;;;;;6.90;4.90;;;;;;;42.79;32.92;99717.02;107951;1290;21993;-72
2023/08/29 07:50:23;;;;;;;8.90;5.40;;;;;;;42.94;32.68;99716.80;107873;1286;22007;-60
2023/08/29 07:52:49;;;;;;;8.10;4.90;;;;;;;43.03;32.31;99719.62;107865;1289;22124;-73
2023/08/29 07:55:15;;;;;;;8.40;4.80;;;;;;;43.08;32.44;99724.67;107855;1289;22048;-75
2023/08/29 07:57:40;;;;;;;9.50;5.70;;;;;;;43.14;32.34;99725.66;107828;1290;22086;-76
2023/08/29 08:00:09;;;;;;;8.60;5.90;;;;;;;43.28;31.94;99729.58;107840;1290;21990;-73
2023/08/29 08:02:38;;;;;;;6.80;5.90;;;;;;;43.35;31.97;99729.41;107867;1286;21988;-73
2023/08/29 08:05:14;;;;;;;8.40;5.40;;;;;;;43.46;31.66;99731.36;107854;1286;21994;-59
2023/08/29 08:07:40;;;;;;;10.60;5.80;;;;;;;43.63;31.37;99727.63;107915;1278;24193;-59
2023/08/29 08:10:07;;;;;;;11.20;5.80;;;;;;;43.75;31.08;99726.64;107925;1280;22083;-75
2023/08/29 08:12:34;;;;;;;7.80;5.40;;;;;;;43.87;31.08;99727.32;107866;1283;22003;-58
2023/08/29 08:15:00;;;;;;;10.10;5.10;;;;;;;44.04;30.76;99729.61;107819;1289;21995;-71
2023/08/29 08:17:26;;;;;;;8.90;5.10;;;;;;;44.18;30.56;99728.30;107863;1285;21993;-58
2023/08/29 08:19:52;;;;;;;7.90;5.40;;;;;;;44.33;30.82;99724.55;107789;1286;21993;-58
2023/08/29 08:22:17;;;;;;;10.80;6.10;;;;;;;44.48;30.71;99724.34;107809;1287;21993;-82
2023/08/29 08:24:43;;;;;;;10.10;6.60;;;;;;;44.56;30.14;99723.61;107820;1283;21993;-79
2023/08/29 08:27:08;;;;;;;10.30;6.30;;;;;;;44.54;30.11;99723.46;107815;1286;22192;-73
2023/08/29 08:29:35;;;;;;;10.10;6.00;;;;;;;44.58;30.32;99720.45;107868;1289;21998;-72
2023/08/29 08:32:01;;;;;;;9.60;5.40;;;;;;;44.69;30.26;99723.29;107937;1283;22008;-60
2023/08/29 08:34:26;;;;;;;10.70;6.10;;;;;;;44.74;29.57;99729.55;107926;1285;23749;-59
2023/08/29 08:36:52;;;;;;;8.70;6.50;;;;;;;44.68;29.47;99729.77;107945;1280;22064;-75
2023/08/29 08:39:18;;;;;;;11.10;6.60;;;;;;;44.64;29.22;99732.39;108025;1283;22170;-59
2023/08/29 08:41:43;;;;;;;11.90;7.50;;;;;;;44.57;28.62;99727.42;108012;1287;23054;-58
2023/08/29 08:44:11;;;;;;;8.00;6.80;;;;;;;44.43;29.11;99730.09;107931;1290;21992;-59
2023/08/29 08:46:38;;;;;;;8.10;6.70;;;;;;;44.43;29.45;99725.98;107993;1290;22030;-58
2023/08/29 08:49:03;;;;;;;8.70;6.60;;;;;;;44.57;28.96;99725.48;108067;1285;21987;-59
2023/08/29 08:51:30;;;;;;;10.30;6.40;;;;;;;44.57;27.86;99725.33;107834;1285;21996;-59
2023/08/29 08:53:55;;;;;;;7.10;6.40;;;;;;;44.32;27.65;99726.24;107777;1285;21993;-71
2023/08/29 08:56:22;;;;;;;11.80;7.00;;;;;;;44.13;27.89;99732.91;107901;1289;23781;-73
2023/08/29 08:58:47;;;;;;;8.70;6.60;;;;;;;44.00;27.60;99735.02;107842;1290;21998;-84
2023/08/29 09:01:13;;;;;;;12.00;6.90;;;;;;;43.84;27.07;99732.31;107819;1289;23611;-61
2023/08/29 09:03:40;;;;;;;10.30;6.80;;;;;;;43.64;26.99;99730.63;107991;1285;22000;-60
2023/08/29 09:06:06;;;;;;;10.30;6.50;;;;;;;43.50;26.64;99727.94;107877;1289;21998;-60
2023/08/29 09:08:32;;;;;;;10.00;7.00;;;;;;;43.42;26.97;99725.65;107803;1290;22261;-59
2023/08/29 09:11:02;;;;;;;10.00;7.00;;;;;;;43.32;27.00;99727.31;107788;1290;22115;-75
2023/08/29 09:13:28;;;;;;;13.80;7.00;;;;;;;43.35;27.23;99724.42;107827;1290;23381;-59
2023/08/29 09:15:53;;;;;;;9.60;7.50;;;;;;;43.47;26.80;99724.73;107820;1290;21996;-61
2023/08/29 09:18:25;;;;;;;10.20;7.30;;;;;;;43.48;26.57;99722.35;108003;1283;22000;-72
2023/08/29 09:20:53;;;;;;;9.50;6.80;;;;;;;43.57;26.61;99724.66;108003;1289;22013;-69
2023/08/29 09:23:22;;;;;;;7.80;6.10;;;;;;;43.77;26.85;99720.80;107914;1283;22002;-60
2023/08/29 09:25:53;;;;;;;9.60;6.70;;;;;;;43.97;26.73;99718.86;107791;1286;21984;-61
2023/08/29 09:28:19;;;;;;;8.10;7.00;;;;;;;44.07;26.30;99720.73;107917;1290;22241;-76
2023/08/29 09:30:44;;;;;;;9.90;6.60;;;;;;;44.00;25.81;99720.95;107968;1287;22053;-61
2023/08/29 09:33:10;;;;;;;12.20;6.60;;;;;;;43.82;26.03;99722.38;107888;1280;22001;-73
2023/08/29 09:35:35;;;;;;;11.90;7.10;;;;;;;43.86;26.49;99723.70;107768;1290;22464;-61
2023/08/29 09:38:01;;;;;;;9.00;6.30;;;;;;;44.13;26.83;99727.17;107832;1289;22000;-59
2023/08/29 09:40:27;;;;;;;8.90;7.40;;;;;;;44.39;26.58;99722.79;107805;1290;21991;-60
2023/08/29 09:42:58;;;;;;;9.60;6.80;;;;;;;44.56;25.91;99722.27;107770;1285;21998;-60
2023/08/29 09:45:24;;;;;;;9.00;6.50;;;;;;;44.73;26.31;99723.11;107797;1281;22002;-60
2023/08/29 09:47:55;;;;;;;7.90;6.90;;;;;;;44.98;25.96;99725.35;107770;1283;22030;-75
2023/08/29 09:50:21;;;;;;;8.70;6.80;;;;;;;45.31;25.85;99723.27;107799;1290;23661;-60
2023/08/29 09:52:51;;;;;;;11.90;6.90;;;;;;;45.52;25.62;99723.97;107829;1280;22004;-70
2023/08/29 09:55:17;;;;;;;11.30;6.40;;;;;;;45.62;25.39;99728.58;107903;1289;22954;-72
2023/08/29 09:57:42;;;;;;;7.20;6.20;;;;;;;45.75;25.39;99723.57;108000;1290;22053;-71
2023/08/29 10:00:10;;;;;;;9.60;6.60;;;;;;;45.98;25.69;99726.52;107807;1290;22460;-60
2023/08/29 10:02:35;;;;;;;8.00;6.90;;;;;;;46.06;24.88;99728.36;107862;1286;21997;-61
2023/08/29 10:05:06;;;;;;;10.00;6.20;;;;;;;45.85;24.16;99729.34;107804;1289;22171;-72
2023/08/29 10:07:43;;;;;;;8.20;6.20;;;;;;;45.57;24.63;99727.95;107897;1290;22004;-71
2023/08/29 10:10:10;;;;;;;8.20;6.50;;;;;;;45.50;24.72;99728.83;107789;1289;21993;-73
2023/08/29 10:12:36;;;;;;;8.80;6.60;;;;;;;45.43;24.24;99730.06;107819;1286;22002;-59
2023/08/29 10:15:03;;;;;;;9.50;6.70;;;;;;;45.35;24.50;99730.40;107927;1283;21992;-61
2023/08/29 10:17:31;;;;;;;9.20;6.30;;;;;;;45.24;24.50;99728.52;107926;1281;22011;-69
2023/08/29 10:19:58;;;;;;;10.40;6.20;;;;;;;45.32;24.82;99727.02;107816;1289;21991;-70
2023/08/29 10:22:27;;;;;;;9.40;7.20;;;;;;;45.50;24.44;99730.51;107899;1284;24339;-71
2023/08/29 10:24:53;;;;;;;11.60;6.30;;;;;;;45.55;24.44;99731.48;107858;1284;23062;-60
2023/08/29 10:27:18;;;;;;;8.80;6.90;;;;;;;45.48;24.02;99733.60;107866;1289;21990;-69
2023/08/29 10:29:44;;;;;;;8.90;6.10;;;;;;;45.32;24.44;99733.27;107815;1284;24205;-62
2023/08/29 10:32:10;;;;;;;8.30;6.40;;;;;;;45.39;24.76;99730.55;107975;1284;22003;-61
2023/08/29 10:34:36;;;;;;;9.40;6.00;;;;;;;45.56;24.63;99729.25;107980;1280;21996;-70
2023/08/29 10:37:03;;;;;;;7.00;6.10;;;;;;;45.78;24.43;99725.48;107803;1290;23661;-62
2023/08/29 10:39:29;;;;;;;9.60;7.00;;;;;;;45.96;23.96;99727.23;107793;1286;22002;-61
2023/08/29 10:41:56;;;;;;;10.60;6.20;;;;;;;46.03;23.87;99730.06;107853;1289;22003;-72
2023/08/29 10:44:31;;;;;;;10.30;6.40;;;;;;;46.18;24.00;99732.08;107811;1290;22747;-71
2023/08/29 10:47:20;;;;;;;11.20;7.00;;;;;;;46.16;23.66;99732.91;107805;1289;23641;-61
2023/08/29 10:49:47;;;;;;;8.20;6.90;;;;;;;45.96;23.45;99730.91;107881;1282;22059;-61
2023/08/29 10:52:14;;;;;;;10.30;7.20;;;;;;;45.74;23.17;99730.73;107892;1290;23643;-60
2023/08/29 10:54:40;;;;;;;10.50;6.80;;;;;;;45.69;24.03;99729.76;107943;1290;22036;-60
2023/08/29 10:57:26;;;;;;;9.80;7.00;;;;;;;45.96;23.94;99730.95;107861;1290;23660;-61
2023/08/29 10:59:52;;;;;;;12.50;6.70;;;;;;;46.18;23.68;99730.23;107869;1290;22785;-61
2023/08/29 11:02:26;;;;;;;12.20;7.00;;;;;;;46.28;23.81;99728.50;107798;1283;21992;-61
2023/08/29 11:05:12;;;;;;;10.70;6.90;;;;;;;46.42;23.65;99725.82;107832;1282;21994;-61
2023/08/29 11:07:40;;;;;;;8.90;7.70;;;;;;;46.39;23.05;99726.55;107783;1286;23056;-70
2023/08/29 11:10:13;;;;;;;13.90;7.70;;;;;;;46.32;22.95;99732.08;107979;1283;22033;-60
2023/08/29 11:13:02;;;;;;;11.00;7.30;;;;;;;46.16;23.11;99730.13;107950;1290;21995;-71
2023/08/29 11:15:47;;;;;;;10.10;7.40;;;;;;;46.25;23.11;99733.60;107798;1290;21996;-71
2023/08/29 11:18:20;;;;;;;12.60;7.50;;;;;;;46.29;22.81;99731.21;107816;1290;22060;-62
2023/08/29 11:20:46;;;;;;;10.00;7.20;;;;;;;46.16;22.61;99727.63;107751;1290;21989;-61